createdAt,value
2017-08-30T00:01:52.151Z,10.50
2017-08-30T00:04:19.699Z,11.10
2017-08-30T00:06:47.244Z,10.70
2017-08-30T00:09:14.710Z,13.20
2017-08-30T00:11:42.270Z,12.17
2017-08-30T00:14:09.825Z,10.60
2017-08-30T00:16:37.386Z,10.30
2017-08-30T00:19:04.850Z,10.30
2017-08-30T00:21:32.403Z,9.40
2017-08-30T00:23:59.963Z,15.30
2017-08-30T00:26:28.231Z,9.50
2017-08-30T00:28:55.798Z,11.87
2017-08-30T00:31:23.268Z,11.33
2017-08-30T00:33:50.746Z,13.10
2017-08-30T00:36:18.300Z,12.00
2017-08-30T00:38:45.817Z,10.70
2017-08-30T00:41:13.291Z,11.97
2017-08-30T00:43:40.842Z,10.17
2017-08-30T00:46:08.448Z,11.90
2017-08-30T00:48:35.925Z,11.70
2017-08-30T00:51:03.420Z,10.03
2017-08-30T00:53:30.882Z,11.90
2017-08-30T00:55:58.344Z,11.37
2017-08-30T00:58:25.819Z,12.27
2017-08-30T01:00:53.328Z,10.97
2017-08-30T01:03:20.897Z,11.10
2017-08-30T01:05:48.450Z,12.10
2017-08-30T01:08:16.019Z,9.43
2017-08-30T01:10:43.594Z,16.30
2017-08-30T01:13:11.122Z,15.03
2017-08-30T01:15:38.585Z,12.27
2017-08-30T01:18:06.054Z,12.60
2017-08-30T01:20:33.607Z,11.43
2017-08-30T01:23:01.182Z,10.90
2017-08-30T01:25:28.640Z,15.50
2017-08-30T01:27:56.164Z,11.50
2017-08-30T01:30:23.719Z,17.57
2017-08-30T01:32:51.294Z,15.20
2017-08-30T01:35:18.850Z,12.43
2017-08-30T01:37:46.428Z,13.83
2017-08-30T01:40:13.884Z,11.17
2017-08-30T01:42:41.362Z,14.33
2017-08-30T01:45:08.826Z,12.03
2017-08-30T01:47:36.345Z,14.53
2017-08-30T01:50:03.827Z,18.87
2017-08-30T01:52:31.300Z,14.47
2017-08-30T01:54:58.765Z,14.33
2017-08-30T01:57:26.233Z,10.93
2017-08-30T01:59:53.779Z,21.23
2017-08-30T02:02:21.252Z,13.70
2017-08-30T02:04:48.711Z,11.47
2017-08-30T02:07:16.212Z,12.47
2017-08-30T02:09:43.763Z,14.30
2017-08-30T02:12:11.224Z,10.73
2017-08-30T02:14:38.683Z,13.93
2017-08-30T02:17:06.149Z,12.93
2017-08-30T02:19:33.699Z,14.70
2017-08-30T02:22:01.238Z,16.93
2017-08-30T02:24:28.815Z,14.70
2017-08-30T02:26:56.282Z,15.90
2017-08-30T02:29:23.826Z,12.20
2017-08-30T02:31:51.365Z,19.30
2017-08-30T02:34:18.930Z,16.50
2017-08-30T02:36:46.491Z,12.43
2017-08-30T02:39:14.046Z,13.70
2017-08-30T02:41:41.610Z,12.83
2017-08-30T02:44:09.074Z,15.20
2017-08-30T02:46:37.337Z,13.07
2017-08-30T02:49:04.812Z,12.13
2017-08-30T02:51:32.353Z,13.00
2017-08-30T02:53:59.922Z,17.53
2017-08-30T02:56:27.470Z,18.00
2017-08-30T02:58:54.941Z,13.13
2017-08-30T03:01:22.419Z,13.67
2017-08-30T03:03:49.887Z,16.37
2017-08-30T03:06:17.400Z,16.50
2017-08-30T03:08:44.875Z,15.50
2017-08-30T03:11:12.404Z,11.97
2017-08-30T03:13:39.884Z,12.67
2017-08-30T03:16:07.365Z,14.20
2017-08-30T03:18:34.899Z,15.47
2017-08-30T03:21:02.400Z,15.03
2017-08-30T03:23:29.879Z,14.40
2017-08-30T03:25:57.357Z,14.50
2017-08-30T03:28:24.935Z,16.80
2017-08-30T03:30:52.478Z,17.50
2017-08-30T03:33:19.943Z,13.70
2017-08-30T03:35:47.440Z,18.17
2017-08-30T03:38:14.958Z,16.83
2017-08-30T03:40:42.426Z,16.77
2017-08-30T03:43:09.978Z,16.13
2017-08-30T03:45:37.467Z,14.43
2017-08-30T03:48:04.974Z,16.60
2017-08-30T03:50:32.520Z,13.40
2017-08-30T03:52:59.999Z,12.50
2017-08-30T03:55:27.461Z,14.63
2017-08-30T03:57:54.952Z,18.50
2017-08-30T04:00:22.419Z,16.97
2017-08-30T04:02:49.922Z,15.07
2017-08-30T04:05:17.470Z,14.30
2017-08-30T04:07:44.951Z,16.50
2017-08-30T04:10:12.414Z,13.03
2017-08-30T04:12:40.719Z,14.87
2017-08-30T04:15:08.189Z,12.40
2017-08-30T04:17:35.662Z,14.70
2017-08-30T04:20:03.138Z,13.27
2017-08-30T04:22:31.205Z,16.63
2017-08-30T04:24:58.718Z,14.00
2017-08-30T04:27:26.173Z,12.87
2017-08-30T04:29:53.653Z,13.47
2017-08-30T04:32:21.244Z,13.53
2017-08-30T04:34:48.725Z,15.23
2017-08-30T04:37:16.190Z,13.70
2017-08-30T04:39:43.666Z,16.10
2017-08-30T04:42:11.116Z,14.37
2017-08-30T04:44:38.585Z,18.57
2017-08-30T04:49:39.924Z,11.67
2017-08-30T04:52:07.454Z,16.53
2017-08-30T04:54:34.940Z,14.40
2017-08-30T04:57:02.462Z,13.30
2017-08-30T04:59:30.010Z,12.57
2017-08-30T05:01:57.492Z,13.10
2017-08-30T05:04:24.964Z,12.17
2017-08-30T05:06:52.500Z,17.77
2017-08-30T05:09:20.051Z,17.73
2017-08-30T05:11:47.530Z,19.40
2017-08-30T05:14:15.034Z,12.60
2017-08-30T05:16:42.498Z,14.63
2017-08-30T05:19:10.031Z,18.10
2017-08-30T05:21:37.499Z,15.77
2017-08-30T05:24:05.042Z,16.70
2017-08-30T05:26:32.536Z,13.97
2017-08-30T05:29:00.106Z,12.60
2017-08-30T05:31:27.587Z,13.30
2017-08-30T05:33:55.131Z,15.60
2017-08-30T05:36:22.595Z,11.77
2017-08-30T05:38:50.125Z,14.13
2017-08-30T05:41:17.621Z,16.03
2017-08-30T05:43:45.861Z,13.97
2017-08-30T05:46:13.338Z,13.60
2017-08-30T05:48:40.798Z,16.63
2017-08-30T05:51:08.349Z,17.33
2017-08-30T05:53:35.914Z,17.10
2017-08-30T05:56:03.512Z,11.47
2017-08-30T05:58:30.982Z,14.33
2017-08-30T06:00:58.457Z,12.57
2017-08-30T06:03:26.041Z,13.90
2017-08-30T06:05:53.513Z,17.27
2017-08-30T06:08:21.101Z,13.07
2017-08-30T06:10:48.592Z,13.83
2017-08-30T06:13:16.069Z,15.83
2017-08-30T06:15:43.628Z,12.80
2017-08-30T06:18:11.181Z,11.87
2017-08-30T06:20:38.683Z,11.07
2017-08-30T06:23:06.169Z,12.87
2017-08-30T06:25:33.640Z,14.87
2017-08-30T06:28:01.110Z,15.43
2017-08-30T06:30:28.574Z,11.77
2017-08-30T06:32:56.088Z,17.27
2017-08-30T06:35:23.633Z,18.63
2017-08-30T06:37:51.109Z,17.10
2017-08-30T06:40:18.589Z,18.13
2017-08-30T06:42:46.151Z,12.57
2017-08-30T06:45:13.810Z,16.50
2017-08-30T06:47:41.287Z,21.53
2017-08-30T06:50:08.762Z,11.23
2017-08-30T06:52:36.276Z,13.37
2017-08-30T06:55:04.770Z,11.57
2017-08-30T06:57:32.337Z,17.87
2017-08-30T06:59:59.899Z,24.20
2017-08-30T07:02:27.454Z,21.67
2017-08-30T07:04:54.951Z,14.07
2017-08-30T07:07:22.412Z,27.93
2017-08-30T07:09:49.927Z,16.07
2017-08-30T07:12:17.428Z,14.67
2017-08-30T07:14:44.894Z,14.40
2017-08-30T07:17:12.380Z,11.77
2017-08-30T07:19:39.853Z,16.73
2017-08-30T07:22:07.372Z,13.67
2017-08-30T07:24:34.861Z,17.70
2017-08-30T07:27:02.428Z,13.07
2017-08-30T07:29:29.990Z,17.20
2017-08-30T07:31:57.444Z,12.10
2017-08-30T07:34:25.820Z,20.23
2017-08-30T07:36:53.308Z,13.87
2017-08-30T07:39:20.772Z,15.03
2017-08-30T07:41:48.289Z,17.87
2017-08-30T07:44:15.829Z,17.37
2017-08-30T07:46:43.310Z,14.10
2017-08-30T07:49:11.100Z,11.40
2017-08-30T07:51:38.712Z,16.10
2017-08-30T07:54:06.279Z,11.10
2017-08-30T07:56:33.745Z,15.13
2017-08-30T07:59:01.224Z,19.73
2017-08-30T08:01:28.768Z,14.07
2017-08-30T08:03:56.330Z,14.00
2017-08-30T08:06:23.802Z,18.30
2017-08-30T08:08:51.283Z,13.90
2017-08-30T08:11:18.741Z,17.13
2017-08-30T08:13:46.233Z,14.13
2017-08-30T08:16:13.694Z,15.93
2017-08-30T08:18:41.179Z,12.10
2017-08-30T08:21:08.652Z,12.83
2017-08-30T08:23:36.177Z,12.73
2017-08-30T08:26:03.653Z,12.53
2017-08-30T08:28:31.186Z,15.83
2017-08-30T08:30:58.653Z,14.93
2017-08-30T08:33:26.152Z,10.47
2017-08-30T08:35:53.650Z,16.93
2017-08-30T08:38:21.230Z,14.37
2017-08-30T08:40:48.819Z,16.57
2017-08-30T08:43:16.304Z,13.90
2017-08-30T08:45:43.791Z,13.20
2017-08-30T08:48:11.347Z,14.90
2017-08-30T08:50:38.838Z,14.47
2017-08-30T08:53:06.358Z,12.80
2017-08-30T08:55:33.854Z,11.83
2017-08-30T08:58:01.326Z,11.53
2017-08-30T09:00:28.846Z,11.83
2017-08-30T09:02:56.318Z,10.13
2017-08-30T09:05:23.791Z,10.93
2017-08-30T09:07:51.314Z,14.17
2017-08-30T09:10:18.791Z,9.43
2017-08-30T09:12:46.273Z,10.67
2017-08-30T09:15:13.739Z,8.30
2017-08-30T09:17:41.263Z,11.07
2017-08-30T09:20:08.751Z,7.60
2017-08-30T09:22:36.312Z,9.03
2017-08-30T09:25:03.787Z,8.17
2017-08-30T09:27:32.273Z,8.20
2017-08-30T09:29:59.738Z,9.40
2017-08-30T09:32:27.234Z,8.00
2017-08-30T09:34:54.714Z,7.90
2017-08-30T09:37:22.182Z,11.60
2017-08-30T09:39:49.694Z,8.93
2017-08-30T09:42:17.191Z,7.53
2017-08-30T09:44:44.667Z,8.10
2017-08-30T09:47:12.246Z,7.47
2017-08-30T09:49:39.720Z,10.27
2017-08-30T09:52:07.364Z,7.80
2017-08-30T09:54:34.925Z,8.70
2017-08-30T09:57:02.480Z,9.10
2017-08-30T09:59:30.049Z,12.27
2017-08-30T10:01:57.522Z,7.70
2017-08-30T10:04:24.990Z,8.13
2017-08-30T10:06:52.603Z,11.23
2017-08-30T10:09:20.189Z,11.00
2017-08-30T10:11:47.758Z,8.93
2017-08-30T10:14:15.216Z,7.67
2017-08-30T10:16:42.696Z,10.10
2017-08-30T10:19:10.173Z,6.87
2017-08-30T10:21:37.649Z,10.27
2017-08-30T10:24:05.190Z,8.07
2017-08-30T10:26:32.675Z,7.40
2017-08-30T10:29:00.170Z,7.90
2017-08-30T10:31:27.703Z,9.33
2017-08-30T10:33:55.234Z,10.80
2017-08-30T10:36:22.721Z,12.20
2017-08-30T10:38:50.267Z,8.53
2017-08-30T10:41:17.728Z,7.03
2017-08-30T10:43:46.710Z,6.37
2017-08-30T10:46:14.465Z,7.87
2017-08-30T10:48:42.028Z,5.93
2017-08-30T10:51:09.590Z,6.50
2017-08-30T10:53:37.066Z,6.60
2017-08-30T10:56:04.602Z,6.20
2017-08-30T10:58:32.068Z,16.27
2017-08-30T11:00:59.540Z,10.80
2017-08-30T11:03:27.083Z,8.33
2017-08-30T11:05:54.560Z,12.90
2017-08-30T11:08:22.082Z,7.20
2017-08-30T11:10:49.698Z,6.90
2017-08-30T11:13:17.233Z,8.57
2017-08-30T11:15:45.065Z,8.47
2017-08-30T11:18:12.706Z,6.20
2017-08-30T11:20:40.185Z,6.23
2017-08-30T11:23:07.757Z,8.90
2017-08-30T11:25:35.240Z,7.17
2017-08-30T11:28:02.715Z,6.97
2017-08-30T11:30:30.218Z,6.63
2017-08-30T11:32:57.717Z,6.77
2017-08-30T11:35:25.246Z,7.63
2017-08-30T11:37:52.798Z,6.90
2017-08-30T11:40:20.273Z,6.53
2017-08-30T11:42:47.752Z,6.90
2017-08-30T11:45:15.232Z,6.63
2017-08-30T11:47:42.711Z,8.53
2017-08-30T11:50:10.276Z,10.50
2017-08-30T11:52:37.890Z,10.90
2017-08-30T11:55:05.384Z,7.50
2017-08-30T11:57:32.918Z,7.93
2017-08-30T12:00:00.405Z,7.37
2017-08-30T12:02:27.869Z,8.60
2017-08-30T12:04:55.376Z,6.90
2017-08-30T12:07:22.996Z,7.83
2017-08-30T12:09:50.462Z,8.50
2017-08-30T12:12:18.002Z,8.73
2017-08-30T12:14:45.562Z,6.13
2017-08-30T12:17:13.041Z,8.27
2017-08-30T12:19:40.545Z,6.60
2017-08-30T12:22:08.048Z,9.90
2017-08-30T12:24:35.701Z,6.10
2017-08-30T12:27:03.173Z,7.00
2017-08-30T12:29:30.646Z,8.53
2017-08-30T12:31:58.113Z,7.77
2017-08-30T12:34:25.631Z,8.40
2017-08-30T12:36:58.878Z,6.07
2017-08-30T12:39:32.044Z,6.40
2017-08-30T12:41:59.672Z,7.70
2017-08-30T12:44:27.133Z,6.20
2017-08-30T12:46:54.672Z,6.37
2017-08-30T12:49:22.124Z,7.43
2017-08-30T12:51:49.582Z,8.20
2017-08-30T12:54:17.056Z,8.00
2017-08-30T12:56:44.611Z,6.30
2017-08-30T12:59:12.192Z,9.40
2017-08-30T13:01:39.719Z,9.37
2017-08-30T13:04:07.288Z,9.53
2017-08-30T13:06:34.789Z,14.20
2017-08-30T13:09:02.288Z,8.17
2017-08-30T13:11:29.799Z,5.67
2017-08-30T13:13:57.301Z,5.70
2017-08-30T13:16:24.821Z,6.83
2017-08-30T13:18:52.498Z,5.87
2017-08-30T13:21:19.966Z,7.10
2017-08-30T13:23:47.450Z,8.03
2017-08-30T13:26:15.002Z,6.17
2017-08-30T13:28:42.563Z,5.80
2017-08-30T13:31:10.109Z,9.13
2017-08-30T13:33:37.578Z,6.90
2017-08-30T13:36:05.119Z,8.57
2017-08-30T13:38:32.596Z,8.53
2017-08-30T13:41:00.140Z,8.50
2017-08-30T13:43:27.713Z,6.50
2017-08-30T13:45:55.267Z,6.63
2017-08-30T13:48:22.820Z,9.00
2017-08-30T13:50:50.284Z,7.03
2017-08-30T13:53:17.790Z,12.80
2017-08-30T13:55:45.241Z,6.43
2017-08-30T13:58:12.764Z,7.83
2017-08-30T14:00:40.225Z,6.30
2017-08-30T14:03:07.690Z,7.33
2017-08-30T14:05:35.190Z,10.20
2017-08-30T14:08:02.647Z,6.07
2017-08-30T14:10:30.125Z,7.00
2017-08-30T14:12:57.590Z,8.20
2017-08-30T14:15:25.150Z,6.57
2017-08-30T14:17:52.600Z,6.73
2017-08-30T14:20:20.172Z,15.40
2017-08-30T14:22:47.719Z,7.20
2017-08-30T14:25:15.177Z,14.87
2017-08-30T14:27:42.629Z,21.73
2017-08-30T14:30:10.194Z,10.07
2017-08-30T14:32:37.759Z,6.70
2017-08-30T14:35:05.300Z,5.60
2017-08-30T14:37:32.800Z,12.03
2017-08-30T14:40:00.311Z,6.50
2017-08-30T14:42:27.891Z,6.97
2017-08-30T14:44:55.386Z,10.00
2017-08-30T14:47:22.845Z,6.23
2017-08-30T14:49:50.304Z,4.97
2017-08-30T14:52:17.807Z,8.03
2017-08-30T14:54:45.381Z,6.47
2017-08-30T14:57:12.841Z,4.90
2017-08-30T14:59:40.299Z,7.00
2017-08-30T15:02:07.841Z,4.57
2017-08-30T15:04:35.320Z,5.07
2017-08-30T15:07:02.861Z,5.70
2017-08-30T15:09:30.413Z,6.20
2017-08-30T15:11:57.988Z,6.90
2017-08-30T15:14:25.542Z,5.27
2017-08-30T15:16:53.028Z,7.63
2017-08-30T15:19:20.499Z,8.43
2017-08-30T15:21:47.997Z,9.07
2017-08-30T15:24:15.466Z,7.97
2017-08-30T15:26:42.941Z,4.63
2017-08-30T15:29:10.430Z,4.93
2017-08-30T15:31:37.947Z,6.27
2017-08-30T15:34:05.420Z,8.33
2017-08-30T15:36:32.961Z,5.30
2017-08-30T15:39:00.513Z,5.43
2017-08-30T15:41:28.123Z,4.57
2017-08-30T15:43:55.736Z,5.17
2017-08-30T15:46:23.210Z,7.77
2017-08-30T15:48:50.759Z,14.57
2017-08-30T15:51:18.220Z,6.33
2017-08-30T15:53:45.696Z,10.87
2017-08-30T15:56:13.234Z,12.60
2017-08-30T15:58:40.706Z,6.13
2017-08-30T16:01:08.179Z,6.10
2017-08-30T16:03:35.765Z,8.40
2017-08-30T16:06:03.227Z,6.33
2017-08-30T16:08:30.699Z,9.73
2017-08-30T16:10:58.175Z,8.83
2017-08-30T16:13:25.651Z,7.40
2017-08-30T16:15:53.178Z,6.50
2017-08-30T16:18:20.641Z,6.50
2017-08-30T16:20:48.240Z,6.70
2017-08-30T16:23:15.742Z,5.80
2017-08-30T16:25:43.212Z,6.67
2017-08-30T16:28:10.722Z,5.70
2017-08-30T16:30:38.214Z,5.03
2017-08-30T16:33:05.785Z,10.53
2017-08-30T16:35:33.351Z,14.23
2017-08-30T16:38:00.838Z,7.80
2017-08-30T16:40:28.349Z,6.47
2017-08-30T16:42:55.916Z,4.63
2017-08-30T16:45:23.462Z,6.40
2017-08-30T16:47:51.081Z,6.67
2017-08-30T16:50:18.665Z,5.23
2017-08-30T16:52:46.598Z,5.63
2017-08-30T16:55:14.128Z,6.00
2017-08-30T16:57:41.688Z,5.50
2017-08-30T17:00:09.145Z,7.93
2017-08-30T17:02:36.708Z,6.77
2017-08-30T17:05:04.187Z,5.57
2017-08-30T17:07:31.724Z,5.00
2017-08-30T17:09:59.185Z,5.73
2017-08-30T17:12:26.729Z,7.43
2017-08-30T17:14:54.275Z,6.23
2017-08-30T17:17:21.829Z,8.33
2017-08-30T17:19:49.316Z,13.77
2017-08-30T17:22:16.805Z,9.10
2017-08-30T17:24:44.300Z,12.03
2017-08-30T17:27:11.770Z,4.87
2017-08-30T17:29:39.248Z,9.73
2017-08-30T17:32:06.730Z,9.10
2017-08-30T17:34:34.207Z,10.53
2017-08-30T17:37:01.661Z,6.50
2017-08-30T17:39:29.148Z,7.30
2017-08-30T17:41:56.737Z,12.20
2017-08-30T17:44:24.198Z,10.63
2017-08-30T17:46:51.677Z,40.33
2017-08-30T17:49:19.151Z,27.23
2017-08-30T17:51:46.641Z,17.70
2017-08-30T17:54:14.232Z,17.83
2017-08-30T17:56:41.705Z,15.67
2017-08-30T17:59:09.191Z,31.77
2017-08-30T18:01:36.681Z,26.43
2017-08-30T18:04:04.231Z,32.93
2017-08-30T18:06:31.856Z,14.90
2017-08-30T18:08:59.372Z,16.90
2017-08-30T18:11:26.868Z,9.67
2017-08-30T18:13:54.327Z,5.93
2017-08-30T18:16:21.866Z,20.83
2017-08-30T18:18:49.376Z,7.93
2017-08-30T18:21:16.935Z,4.33
2017-08-30T18:23:44.490Z,8.10
2017-08-30T18:26:11.980Z,13.60
2017-08-30T18:28:39.568Z,7.73
2017-08-30T18:31:07.021Z,12.50
2017-08-30T18:33:34.519Z,12.70
2017-08-30T18:36:01.986Z,8.10
2017-08-30T18:38:29.535Z,9.80
2017-08-30T18:40:57.024Z,11.80
2017-08-30T18:43:24.909Z,8.70
2017-08-30T18:45:52.675Z,9.53
2017-08-30T18:48:20.186Z,5.63
2017-08-30T18:50:47.664Z,10.70
2017-08-30T18:53:15.348Z,10.67
2017-08-30T18:55:42.909Z,10.80
2017-08-30T18:58:10.370Z,10.50
2017-08-30T19:00:37.837Z,4.77
2017-08-30T19:03:05.314Z,8.00
2017-08-30T19:05:32.802Z,8.73
2017-08-30T19:08:00.328Z,6.07
2017-08-30T19:10:27.906Z,4.33
2017-08-30T19:12:55.467Z,6.73
2017-08-30T19:15:22.947Z,6.30
2017-08-30T19:17:50.409Z,6.73
2017-08-30T19:20:17.887Z,6.10
2017-08-30T19:22:45.371Z,7.30
2017-08-30T19:25:12.945Z,7.83
2017-08-30T19:27:40.416Z,6.30
2017-08-30T19:30:07.960Z,5.00
2017-08-30T19:32:35.719Z,7.50
2017-08-30T19:35:03.191Z,5.93
2017-08-30T19:37:30.684Z,11.00
2017-08-30T19:39:58.189Z,6.47
2017-08-30T19:42:25.795Z,5.43
2017-08-30T19:44:53.368Z,4.43
2017-08-30T19:47:20.846Z,15.50
2017-08-30T19:49:48.303Z,5.17
2017-08-30T19:52:15.775Z,5.40
2017-08-30T19:54:43.287Z,6.27
2017-08-30T19:57:10.731Z,5.10
2017-08-30T19:59:38.262Z,7.20
2017-08-30T20:02:05.766Z,5.73
2017-08-30T20:04:33.268Z,5.40
2017-08-30T20:07:00.825Z,5.60
2017-08-30T20:09:28.294Z,5.10
2017-08-30T20:11:55.768Z,9.40
2017-08-30T20:14:23.238Z,7.17
2017-08-30T20:16:50.703Z,5.70
2017-08-30T20:19:18.215Z,4.80
2017-08-30T20:21:45.769Z,6.40
2017-08-30T20:24:13.324Z,5.23
2017-08-30T20:26:40.814Z,5.80
2017-08-30T20:29:08.346Z,4.93
2017-08-30T20:31:35.935Z,6.57
2017-08-30T20:34:03.393Z,4.90
2017-08-30T20:36:30.868Z,5.13
2017-08-30T20:38:58.347Z,5.03
2017-08-30T20:41:25.916Z,6.77
2017-08-30T20:43:53.397Z,4.47
2017-08-30T20:46:20.867Z,5.73
2017-08-30T20:48:48.331Z,4.67
2017-08-30T20:51:15.813Z,8.13
2017-08-30T20:53:43.325Z,6.70
2017-08-30T20:56:10.806Z,13.73
2017-08-30T20:58:38.342Z,5.40
2017-08-30T21:01:05.892Z,9.57
2017-08-30T21:03:33.503Z,9.50
2017-08-30T21:06:00.978Z,6.00
2017-08-30T21:08:28.438Z,6.13
2017-08-30T21:10:56.022Z,5.70
2017-08-30T21:13:23.587Z,6.27
2017-08-30T21:15:51.059Z,6.37
2017-08-30T21:18:18.533Z,5.30
2017-08-30T21:20:45.985Z,6.40
2017-08-30T21:23:13.477Z,7.30
2017-08-30T21:25:40.968Z,6.30
2017-08-30T21:28:08.449Z,5.60
2017-08-30T21:30:36.685Z,5.47
2017-08-30T21:33:04.254Z,5.80
2017-08-30T21:35:31.726Z,5.40
2017-08-30T21:37:59.199Z,9.10
2017-08-30T21:40:26.785Z,5.93
2017-08-30T21:42:54.270Z,9.60
2017-08-30T21:45:21.850Z,4.70
2017-08-30T21:47:49.427Z,7.03
2017-08-30T21:50:16.907Z,19.57
2017-08-30T21:52:44.368Z,6.10
2017-08-30T21:55:11.837Z,8.17
2017-08-30T21:57:39.288Z,6.10
2017-08-30T22:00:06.763Z,6.10
2017-08-30T22:02:34.257Z,7.63
2017-08-30T22:05:01.760Z,10.33
2017-08-30T22:07:29.230Z,7.00
2017-08-30T22:09:56.730Z,6.63
2017-08-30T22:12:24.194Z,6.17
2017-08-30T22:14:51.747Z,7.93
2017-08-30T22:17:19.297Z,7.90
2017-08-30T22:19:46.762Z,9.53
2017-08-30T22:22:14.297Z,8.23
2017-08-30T22:24:41.778Z,10.60
2017-08-30T22:27:09.237Z,8.93
2017-08-30T22:29:36.706Z,11.33
2017-08-30T22:32:04.169Z,7.43
2017-08-30T22:34:31.693Z,9.87
2017-08-30T22:36:59.150Z,9.20
2017-08-30T22:39:26.618Z,8.57
2017-08-30T22:41:54.091Z,8.90
2017-08-30T22:44:21.557Z,7.93
2017-08-30T22:46:49.127Z,10.60
2017-08-30T22:49:16.603Z,8.83
2017-08-30T22:51:44.085Z,7.60
2017-08-30T22:54:11.545Z,9.73
2017-08-30T22:56:39.112Z,7.70
2017-08-30T22:59:06.620Z,7.80
2017-08-30T23:01:34.092Z,6.80
2017-08-30T23:04:02.406Z,8.63
2017-08-30T23:06:29.871Z,9.33
2017-08-30T23:08:57.328Z,8.50
2017-08-30T23:11:24.785Z,6.60
2017-08-30T23:13:52.256Z,8.67
2017-08-30T23:16:19.722Z,8.60
2017-08-30T23:18:47.239Z,9.27
2017-08-30T23:21:14.744Z,9.30
2017-08-30T23:23:42.241Z,7.27
2017-08-30T23:26:09.704Z,8.60
2017-08-30T23:28:37.152Z,9.53
2017-08-30T23:31:04.647Z,11.73
2017-08-30T23:33:32.169Z,6.13
2017-08-30T23:35:59.635Z,10.00
2017-08-30T23:38:27.182Z,7.30
2017-08-30T23:40:54.642Z,8.23
2017-08-30T23:43:22.247Z,10.53
2017-08-30T23:45:49.726Z,7.90
2017-08-30T23:48:17.275Z,11.47
2017-08-30T23:50:44.837Z,8.03
2017-08-30T23:53:12.338Z,7.50
2017-08-30T23:55:39.797Z,7.97
2017-08-30T23:58:07.256Z,6.77
